Time,TemperatureF,DewpointF,PressureIn,WindDirection,WindDirectionDegrees,WindSpeedMPH,WindSpeedGustMPH,Humidity,HourlyPrecipIn,Conditions,Clouds,dailyrainin,SoftwareType,DateUTC
2013-01-04 00:00:00,39.9,38.3,30.26,NW,315,0.0,0.0,94,0.00,,,0.07,Wunderground v.1.15,2013-01-04 05:00:00,
2013-01-04 00:09:00,39.8,38.2,30.26,NW,315,0.0,0.0,94,0.00,,,0.00,Wunderground v.1.15,2013-01-04 05:09:00,
2013-01-04 00:15:00,39.7,38.1,30.26,NW,316,0.0,0.0,94,0.00,,,0.00,Wunderground v.1.15,2013-01-04 05:15:00,
2013-01-04 00:20:00,39.6,38.0,30.26,NW,316,0.0,0.0,94,0.00,,,0.00,Wunderground v.1.15,2013-01-04 05:20:00,
2013-01-04 00:30:00,39.5,37.9,30.26,NW,316,0.0,0.0,94,0.00,,,0.00,Wunderground v.1.15,2013-01-04 05:30:00,
2013-01-04 00:39:00,39.3,37.7,30.26,NW,317,0.0,0.0,94,0.00,,,0.00,Wunderground v.1.15,2013-01-04 05:39:00,
2013-01-04 00:45:00,39.1,37.5,30.25,North,360,0.0,0.0,94,0.00,,,0.00,Wunderground v.1.15,2013-01-04 05:45:00,
2013-01-04 00:50:00,39.1,37.5,30.25,North,349,0.0,0.0,94,0.00,,,0.00,Wunderground v.1.15,2013-01-04 05:50:00,
2013-01-04 01:00:00,38.7,37.1,30.25,North,5,0.0,0.0,94,0.00,,,0.00,Wunderground v.1.15,2013-01-04 06:00:00,
2013-01-04 01:09:00,38.5,36.9,30.24,North,5,0.0,0.0,94,0.00,,,0.00,Wunderground v.1.15,2013-01-04 06:09:00,
2013-01-04 01:15:00,38.4,37.1,30.24,NNE,17,0.0,0.0,95,0.00,,,0.00,Wunderground v.1.15,2013-01-04 06:15:00,
2013-01-04 01:20:00,38.2,36.9,30.24,North,9,0.0,0.0,95,0.00,,,0.00,Wunderground v.1.15,2013-01-04 06:20:00,
2013-01-04 01:30:00,38.1,36.8,30.24,North,11,0.0,0.0,95,0.00,,,0.00,Wunderground v.1.15,2013-01-04 06:30:00,
2013-01-04 01:40:00,38.0,36.7,30.25,NNE,30,0.0,0.0,95,0.00,,,0.00,Wunderground v.1.15,2013-01-04 06:40:00,
2013-01-04 01:50:00,37.8,36.5,30.25,North,5,0.0,0.0,95,0.00,,,0.00,Wunderground v.1.15,2013-01-04 06:50:00,
2013-01-04 02:00:00,37.8,36.5,30.25,NNE,21,0.0,0.0,95,0.00,,,0.00,Wunderground v.1.15,2013-01-04 07:00:00,
2013-01-04 02:09:00,37.6,36.3,30.26,NNE,30,0.0,0.0,95,0.00,,,0.00,Wunderground v.1.15,2013-01-04 07:09:00,
2013-01-04 02:15:00,37.6,36.3,30.26,NNE,19,0.0,0.0,95,0.00,,,0.00,Wunderground v.1.15,2013-01-04 07:15:00,
2013-01-04 02:20:00,37.5,36.2,30.26,North,11,0.0,0.0,95,0.00,,,0.00,Wunderground v.1.15,2013-01-04 07:20:00,
2013-01-04 02:29:00,37.5,36.2,30.26,North,350,0.0,0.0,95,0.00,,,0.00,Wunderground v.1.15,2013-01-04 07:29:00,
2013-01-04 02:35:00,37.4,36.1,30.27,NNE,22,0.0,0.0,95,0.00,,,0.00,Wunderground v.1.15,2013-01-04 07:35:00,
2013-01-04 02:45:00,37.2,35.9,30.27,NNW,346,0.0,0.0,95,0.00,,,0.00,Wunderground v.1.15,2013-01-04 07:45:00,
2013-01-04 02:55:00,37.2,35.9,30.27,NNW,346,0.0,0.0,95,0.00,,,0.00,Wunderground v.1.15,2013-01-04 07:55:00,
2013-01-04 03:05:00,37.2,35.9,30.27,North,355,0.0,0.0,95,0.00,,,0.00,Wunderground v.1.15,2013-01-04 08:05:00,
2013-01-04 03:15:00,37.2,35.9,30.27,NW,306,0.0,3.0,95,0.00,,,0.00,Wunderground v.1.15,2013-01-04 08:15:00,
2013-01-04 03:25:00,37.0,35.7,30.28,NNW,333,0.0,0.0,95,0.00,,,0.00,Wunderground v.1.15,2013-01-04 08:25:00,
2013-01-04 03:35:00,36.9,35.6,30.27,NNE,15,0.0,0.0,95,0.00,,,0.00,Wunderground v.1.15,2013-01-04 08:35:00,
2013-01-04 03:44:00,36.8,35.5,30.27,NNE,18,0.0,0.0,95,0.00,,,0.00,Wunderground v.1.15,2013-01-04 08:44:00,
2013-01-04 03:50:00,36.7,35.4,30.27,NNE,31,0.0,0.0,95,0.00,,,0.00,Wunderground v.1.15,2013-01-04 08:50:00,
2013-01-04 03:55:00,36.6,35.3,30.27,NNE,30,0.0,0.0,95,0.00,,,0.00,Wunderground v.1.15,2013-01-04 08:55:00,
2013-01-04 04:05:00,36.6,35.3,30.27,North,5,0.0,0.0,95,0.00,,,0.00,Wunderground v.1.15,2013-01-04 09:05:00,
2013-01-04 04:15:00,36.6,35.3,30.26,NNE,27,0.0,0.0,95,0.00,,,0.00,Wunderground v.1.15,2013-01-04 09:15:00,
2013-01-04 04:25:00,36.5,35.2,30.27,NNE,20,0.0,0.0,95,0.00,,,0.00,Wunderground v.1.15,2013-01-04 09:25:00,
2013-01-04 04:35:00,36.3,35.0,30.27,NW,315,0.0,1.0,95,0.00,,,0.00,Wunderground v.1.15,2013-01-04 09:35:00,
2013-01-04 04:40:00,36.2,34.9,30.27,NNW,340,0.0,0.0,95,0.00,,,0.00,Wunderground v.1.15,2013-01-04 09:40:00,
2013-01-04 04:50:00,36.2,34.9,30.27,NW,315,0.0,0.0,95,0.00,,,0.00,Wunderground v.1.15,2013-01-04 09:50:00,
2013-01-04 05:00:00,36.0,34.7,30.26,NNW,346,0.0,1.0,95,0.00,,,0.00,Wunderground v.1.15,2013-01-04 10:00:00,
2013-01-04 05:10:00,36.0,34.7,30.27,NNW,343,0.0,0.0,95,0.00,,,0.00,Wunderground v.1.15,2013-01-04 10:10:00,
2013-01-04 05:20:00,36.0,34.7,30.27,NNW,328,0.0,0.0,95,0.00,,,0.00,Wunderground v.1.15,2013-01-04 10:20:00,
2013-01-04 05:30:00,36.0,34.7,30.27,NNE,13,0.0,0.0,95,0.00,,,0.00,Wunderground v.1.15,2013-01-04 10:30:00,
2013-01-04 05:40:00,36.0,34.7,30.27,North,5,0.0,0.0,95,0.00,,,0.01,Wunderground v.1.15,2013-01-04 10:40:00,
2013-01-04 05:49:00,36.0,34.7,30.27,NW,318,0.0,0.0,95,0.00,,,0.01,Wunderground v.1.15,2013-01-04 10:49:00,
2013-01-04 05:55:00,35.8,34.5,30.27,NE,39,0.0,0.0,95,0.00,,,0.01,Wunderground v.1.15,2013-01-04 10:55:00,
2013-01-04 06:05:00,35.8,34.5,30.27,NNE,26,0.0,0.0,95,0.00,,,0.01,Wunderground v.1.15,2013-01-04 11:05:00,
2013-01-04 06:15:00,35.7,34.4,30.27,NNE,16,0.0,0.0,95,0.00,,,0.01,Wunderground v.1.15,2013-01-04 11:15:00,
2013-01-04 06:20:00,35.7,34.4,30.27,NNE,19,0.0,0.0,95,0.00,,,0.01,Wunderground v.1.15,2013-01-04 11:20:00,
2013-01-04 06:29:00,35.7,34.4,30.28,NNE,16,0.0,0.0,95,0.00,,,0.01,Wunderground v.1.15,2013-01-04 11:29:00,
2013-01-04 06:35:00,35.7,34.4,30.27,North,350,0.0,0.0,95,0.00,,,0.01,Wunderground v.1.15,2013-01-04 11:35:00,
2013-01-04 06:45:00,35.7,34.4,30.28,North,360,0.0,0.0,95,0.00,,,0.01,Wunderground v.1.15,2013-01-04 11:45:00,
2013-01-04 06:55:00,35.6,34.3,30.28,NNE,13,0.0,0.0,95,0.00,,,0.01,Wunderground v.1.15,2013-01-04 11:55:00,
2013-01-04 07:00:00,35.6,34.3,30.29,NNW,341,0.0,0.0,95,0.00,,,0.01,Wunderground v.1.15,2013-01-04 12:00:00,
2013-01-04 07:09:00,-999.9,-99.9,30.29,North,32767,-999.0,0.0,255,-99.99,,,0.01,Wunderground v.1.15,2013-01-04 12:09:00,
2013-01-04 07:15:00,-999.9,-99.9,30.29,North,32767,-999.0,0.0,255,-99.99,,,0.01,Wunderground v.1.15,2013-01-04 12:15:00,
2013-01-04 07:25:00,-999.9,-99.9,30.30,North,32767,-999.0,0.0,255,-99.99,,,0.01,Wunderground v.1.15,2013-01-04 12:25:00,
2013-01-04 07:30:00,-999.9,-99.9,30.30,North,32767,-999.0,0.0,255,-99.99,,,0.01,Wunderground v.1.15,2013-01-04 12:30:00,
2013-01-04 07:39:00,-999.9,-99.9,30.30,North,32767,-999.0,0.0,255,-99.99,,,0.01,Wunderground v.1.15,2013-01-04 12:39:00,
2013-01-04 07:45:00,36.1,34.8,30.30,NNE,19,0.0,0.0,95,0.00,,,0.01,Wunderground v.1.15,2013-01-04 12:45:00,
2013-01-04 07:50:00,36.4,35.1,30.30,North,5,0.0,0.0,95,0.00,,,0.01,Wunderground v.1.15,2013-01-04 12:50:00,
2013-01-04 08:00:00,36.8,35.5,30.30,NNW,334,0.0,0.0,95,0.00,,,0.01,Wunderground v.1.15,2013-01-04 13:00:00,
2013-01-04 08:10:00,37.4,36.1,30.31,NNW,343,0.0,0.0,95,0.00,,,0.01,Wunderground v.1.15,2013-01-04 13:10:00,
2013-01-04 08:20:00,37.9,36.6,30.31,NNE,17,0.0,0.0,95,0.00,,,0.01,Wunderground v.1.15,2013-01-04 13:20:00,
2013-01-04 08:30:00,38.6,37.3,30.32,NNE,32,0.0,0.0,95,0.00,,,0.01,Wunderground v.1.15,2013-01-04 13:30:00,
2013-01-04 08:40:00,39.2,37.6,30.32,NE,45,0.0,0.0,94,0.00,,,0.01,Wunderground v.1.15,2013-01-04 13:40:00,
2013-01-04 08:50:00,39.5,37.6,30.32,NNE,26,0.0,0.0,93,0.00,,,0.01,Wunderground v.1.15,2013-01-04 13:50:00,
2013-01-04 09:00:00,40.2,38.1,30.33,North,5,0.0,0.0,92,0.00,,,0.01,Wunderground v.1.15,2013-01-04 14:00:00,
2013-01-04 09:10:00,41.1,38.7,30.33,North,11,0.0,0.0,91,0.00,,,0.01,Wunderground v.1.15,2013-01-04 14:10:00,
2013-01-04 09:20:00,41.5,38.8,30.33,NNE,19,0.0,0.0,90,0.00,,,0.01,Wunderground v.1.15,2013-01-04 14:20:00,
2013-01-04 09:30:00,42.8,39.8,30.33,NNE,15,0.0,0.0,89,0.00,,,0.01,Wunderground v.1.15,2013-01-04 14:30:00,
2013-01-04 09:40:00,43.6,40.0,30.33,NE,49,0.0,0.0,87,0.00,,,0.01,Wunderground v.1.15,2013-01-04 14:40:00,
2013-01-04 09:50:00,44.1,40.2,30.33,NE,44,0.0,0.0,86,0.00,,,0.01,Wunderground v.1.15,2013-01-04 14:50:00,
2013-01-04 10:00:00,44.2,38.7,30.33,North,350,0.0,2.0,81,0.00,,,0.01,Wunderground v.1.15,2013-01-04 15:00:00,
2013-01-04 10:10:00,44.5,38.4,30.32,NE,42,2.0,2.0,79,0.00,,,0.01,Wunderground v.1.15,2013-01-04 15:10:00,
2013-01-04 10:20:00,45.8,39.0,30.32,NE,45,0.0,0.0,77,0.00,,,0.01,Wunderground v.1.15,2013-01-04 15:20:00,
2013-01-04 10:30:00,46.0,37.8,30.32,NNE,30,0.0,0.0,73,0.00,,,0.01,Wunderground v.1.15,2013-01-04 15:30:00,
2013-01-04 10:40:00,46.3,37.4,30.32,NNE,30,0.0,0.0,71,0.00,,,0.01,Wunderground v.1.15,2013-01-04 15:40:00,
2013-01-04 10:50:00,46.6,36.6,30.32,ENE,60,0.0,0.0,68,0.00,,,0.01,Wunderground v.1.15,2013-01-04 15:50:00,
2013-01-04 11:00:00,47.7,37.3,30.32,NNE,15,0.0,0.0,67,0.00,,,0.01,Wunderground v.1.15,2013-01-04 16:00:00,
2013-01-04 11:09:00,47.8,35.4,30.31,ENE,63,0.0,0.0,62,0.00,,,0.01,Wunderground v.1.15,2013-01-04 16:09:00,
2013-01-04 11:15:00,48.7,34.6,30.31,ENE,59,0.0,0.0,58,0.00,,,0.01,Wunderground v.1.15,2013-01-04 16:15:00,
2013-01-04 11:25:00,48.3,34.6,30.31,North,360,0.0,0.0,59,0.00,,,0.01,Wunderground v.1.15,2013-01-04 16:25:00,
2013-01-04 11:35:00,49.0,37.3,30.31,NNE,26,0.0,0.0,64,0.00,,,0.01,Wunderground v.1.15,2013-01-04 16:35:00,
2013-01-04 11:45:00,48.8,35.5,30.30,NE,49,0.0,0.0,60,0.00,,,0.01,Wunderground v.1.15,2013-01-04 16:45:00,
2013-01-04 11:55:00,47.7,34.9,30.30,SE,132,0.0,0.0,61,0.00,,,0.01,Wunderground v.1.15,2013-01-04 16:55:00,
2013-01-04 12:04:00,46.9,35.7,30.29,SE,144,0.0,0.0,65,0.00,,,0.01,Wunderground v.1.15,2013-01-04 17:04:00,
2013-01-04 12:10:00,46.7,35.6,30.29,SE,136,0.0,0.0,65,0.00,,,0.01,Wunderground v.1.15,2013-01-04 17:10:00,
2013-01-04 12:20:00,46.9,35.4,30.29,SE,134,0.0,0.0,64,0.00,,,0.01,Wunderground v.1.15,2013-01-04 17:20:00,
2013-01-04 12:30:00,46.9,34.6,30.28,SE,142,0.0,0.0,62,0.00,,,0.01,Wunderground v.1.15,2013-01-04 17:30:00,
2013-01-04 12:40:00,47.2,35.2,30.27,SE,128,0.0,0.0,63,0.00,,,0.01,Wunderground v.1.15,2013-01-04 17:40:00,
2013-01-04 12:50:00,47.5,35.5,30.27,SSE,148,0.0,0.0,63,0.00,,,0.01,Wunderground v.1.15,2013-01-04 17:50:00,
2013-01-04 13:00:00,47.3,35.7,30.26,SSE,148,0.0,0.0,64,0.00,,,0.01,Wunderground v.1.15,2013-01-04 18:00:00,
2013-01-04 13:09:00,47.5,35.1,30.26,SSE,149,0.0,0.0,62,0.00,,,0.01,Wunderground v.1.15,2013-01-04 18:09:00,
2013-01-04 13:15:00,47.5,35.1,30.26,SE,138,0.0,0.0,62,0.00,,,0.01,Wunderground v.1.15,2013-01-04 18:15:00,
2013-01-04 13:25:00,47.6,36.4,30.25,SE,142,0.0,0.0,65,0.00,,,0.01,Wunderground v.1.15,2013-01-04 18:25:00,
2013-01-04 13:35:00,47.7,35.7,30.25,SSE,157,0.0,0.0,63,0.00,,,0.01,Wunderground v.1.15,2013-01-04 18:35:00,
2013-01-04 13:44:00,47.9,35.9,30.25,SSE,160,0.0,0.0,63,0.00,,,0.01,Wunderground v.1.15,2013-01-04 18:44:00,
2013-01-04 13:50:00,48.1,36.9,30.25,South,170,0.0,0.0,65,0.00,,,0.01,Wunderground v.1.15,2013-01-04 18:50:00,
2013-01-04 14:00:00,48.2,36.6,30.24,SSE,153,0.0,0.0,64,0.00,,,0.01,Wunderground v.1.15,2013-01-04 19:00:00,
2013-01-04 14:05:00,48.2,36.6,30.25,South,169,0.0,0.0,64,0.00,,,0.01,Wunderground v.1.15,2013-01-04 19:05:00,
2013-01-04 14:14:00,48.3,36.3,30.24,South,191,0.0,0.0,63,0.00,,,0.01,Wunderground v.1.15,2013-01-04 19:14:00,
2013-01-04 14:20:00,48.5,36.9,30.24,SSW,202,0.0,0.0,64,0.00,,,0.01,Wunderground v.1.15,2013-01-04 19:20:00,
2013-01-04 14:30:00,48.6,37.0,30.24,South,177,0.0,0.0,64,0.00,,,0.01,Wunderground v.1.15,2013-01-04 19:30:00,
2013-01-04 14:35:00,48.7,37.8,30.23,South,178,0.0,0.0,66,0.00,,,0.01,Wunderground v.1.15,2013-01-04 19:35:00,
2013-01-04 14:44:00,48.8,37.2,30.23,South,184,0.0,0.0,64,0.00,,,0.01,Wunderground v.1.15,2013-01-04 19:44:00,
2013-01-04 14:50:00,48.9,36.9,30.24,SSE,163,0.0,0.0,63,0.00,,,0.01,Wunderground v.1.15,2013-01-04 19:50:00,
2013-01-04 15:00:00,49.2,37.9,30.24,SW,215,0.0,0.0,65,0.00,,,0.01,Wunderground v.1.15,2013-01-04 20:00:00,
2013-01-04 15:05:00,49.3,36.8,30.24,SSW,197,0.0,0.0,62,0.00,,,0.01,Wunderground v.1.15,2013-01-04 20:05:00,
2013-01-04 15:14:00,49.2,37.1,30.24,SSW,197,0.0,0.0,63,0.00,,,0.01,Wunderground v.1.15,2013-01-04 20:14:00,
2013-01-04 15:20:00,49.4,38.1,30.24,South,184,0.0,0.0,65,0.00,,,0.01,Wunderground v.1.15,2013-01-04 20:20:00,
2013-01-04 15:25:00,49.5,38.6,30.24,SSW,199,0.0,0.0,66,0.00,,,0.01,Wunderground v.1.15,2013-01-04 20:25:00,
2013-01-04 15:35:00,49.6,38.3,30.24,South,178,0.0,0.0,65,0.00,,,0.01,Wunderground v.1.15,2013-01-04 20:35:00,
2013-01-04 15:45:00,49.9,38.6,30.24,SSW,207,0.0,0.0,65,0.00,,,0.01,Wunderground v.1.15,2013-01-04 20:45:00,
2013-01-04 15:55:00,49.8,38.9,30.24,SSW,200,0.0,0.0,66,0.00,,,0.01,Wunderground v.1.15,2013-01-04 20:55:00,
2013-01-04 16:05:00,50.1,39.6,30.23,South,186,0.0,0.0,67,0.00,,,0.01,Wunderground v.1.15,2013-01-04 21:05:00,
2013-01-04 16:15:00,50.2,38.5,30.22,South,186,0.0,0.0,64,0.00,,,0.01,Wunderground v.1.15,2013-01-04 21:15:00,
2013-01-04 16:25:00,50.1,39.9,30.22,SSE,158,0.0,0.0,68,0.00,,,0.01,Wunderground v.1.15,2013-01-04 21:25:00,
2013-01-04 16:35:00,49.9,40.1,30.22,SW,219,0.0,0.0,69,0.00,,,0.01,Wunderground v.1.15,2013-01-04 21:35:00,
2013-01-04 16:45:00,50.0,41.3,30.23,SSW,207,0.0,0.0,72,0.00,,,0.01,Wunderground v.1.15,2013-01-04 21:45:00,
2013-01-04 16:55:00,50.2,41.2,30.23,SW,215,0.0,0.0,71,0.00,,,0.01,Wunderground v.1.15,2013-01-04 21:55:00,
2013-01-04 17:05:00,50.1,42.1,30.23,WSW,240,0.0,0.0,74,0.00,,,0.01,Wunderground v.1.15,2013-01-04 22:05:00,
2013-01-04 17:15:00,49.9,41.6,30.23,West,263,0.0,0.0,73,0.00,,,0.01,Wunderground v.1.15,2013-01-04 22:15:00,
2013-01-04 17:25:00,49.4,41.1,30.23,WSW,244,0.0,0.0,73,0.00,,,0.01,Wunderground v.1.15,2013-01-04 22:25:00,
2013-01-04 17:35:00,49.0,41.1,30.23,WSW,244,0.0,0.0,74,0.00,,,0.01,Wunderground v.1.15,2013-01-04 22:35:00,
2013-01-04 17:45:00,48.6,40.7,30.24,WSW,246,0.0,0.0,74,0.00,,,0.01,Wunderground v.1.15,2013-01-04 22:45:00,
2013-01-04 17:55:00,47.9,39.7,30.25,West,277,0.0,0.0,73,0.00,,,0.01,Wunderground v.1.15,2013-01-04 22:55:00,
2013-01-04 18:05:00,47.3,39.4,30.25,West,277,0.0,0.0,74,0.00,,,0.01,Wunderground v.1.15,2013-01-04 23:05:00,
2013-01-04 18:15:00,46.8,39.6,30.26,West,277,0.0,0.0,76,0.00,,,0.01,Wunderground v.1.15,2013-01-04 23:15:00,
2013-01-04 18:24:00,46.2,39.1,30.26,West,277,0.0,0.0,76,0.00,,,0.01,Wunderground v.1.15,2013-01-04 23:24:00,
2013-01-04 18:30:00,45.9,38.8,30.26,West,277,0.0,0.0,76,0.00,,,0.01,Wunderground v.1.15,2013-01-04 23:30:00,
2013-01-04 18:40:00,45.6,38.1,30.26,West,277,0.0,0.0,75,0.00,,,0.01,Wunderground v.1.15,2013-01-04 23:40:00,
2013-01-04 18:50:00,45.4,37.9,30.27,West,281,0.0,0.0,75,0.00,,,0.01,Wunderground v.1.15,2013-01-04 23:50:00,
2013-01-04 19:00:00,45.3,37.5,30.27,WNW,288,0.0,0.0,74,0.00,,,0.01,Wunderground v.1.15,2013-01-05 00:00:00,
2013-01-04 19:10:00,44.9,37.8,30.27,WNW,288,0.0,0.0,76,0.00,,,0.01,Wunderground v.1.15,2013-01-05 00:10:00,
2013-01-04 19:20:00,44.3,36.9,30.27,WNW,288,0.0,0.0,75,0.00,,,0.01,Wunderground v.1.15,2013-01-05 00:20:00,
2013-01-04 19:29:00,44.2,36.8,30.27,WNW,288,0.0,0.0,75,0.00,,,0.01,Wunderground v.1.15,2013-01-05 00:29:00,
2013-01-04 19:35:00,44.1,37.0,30.27,WNW,288,0.0,0.0,76,0.00,,,0.01,Wunderground v.1.15,2013-01-05 00:35:00,
2013-01-04 19:45:00,43.6,37.2,30.27,SW,219,0.0,0.0,78,0.00,,,0.01,Wunderground v.1.15,2013-01-05 00:45:00,
2013-01-04 19:55:00,43.1,37.7,30.27,SW,227,0.0,0.0,81,0.00,,,0.01,Wunderground v.1.15,2013-01-05 00:55:00,
2013-01-04 20:04:00,42.5,36.4,30.28,NW,309,0.0,2.0,79,0.00,,,0.01,Wunderground v.1.15,2013-01-05 01:04:00,
2013-01-04 20:10:00,42.7,36.3,30.29,NW,312,1.0,1.0,78,0.00,,,0.01,Wunderground v.1.15,2013-01-05 01:10:00,
2013-01-04 20:20:00,42.9,36.5,30.29,NW,310,1.0,1.0,78,0.00,,,0.01,Wunderground v.1.15,2013-01-05 01:20:00,
2013-01-04 20:25:00,42.9,36.5,30.29,NW,312,1.0,1.0,78,0.00,,,0.01,Wunderground v.1.15,2013-01-05 01:25:00,
2013-01-04 20:34:00,42.8,36.4,30.30,WNW,299,0.0,0.0,78,0.00,,,0.01,Wunderground v.1.15,2013-01-05 01:34:00,
2013-01-04 20:40:00,42.7,36.3,30.30,WNW,299,0.0,0.0,78,0.00,,,0.01,Wunderground v.1.15,2013-01-05 01:40:00,
2013-01-04 20:50:00,42.5,36.4,30.30,WNW,299,0.0,0.0,79,0.00,,,0.01,Wunderground v.1.15,2013-01-05 01:50:00,
2013-01-04 21:00:00,42.2,36.2,30.30,WNW,299,0.0,0.0,79,0.00,,,0.01,Wunderground v.1.15,2013-01-05 02:00:00,
2013-01-04 21:10:00,41.8,36.1,30.30,WNW,299,0.0,0.0,80,0.00,,,0.01,Wunderground v.1.15,2013-01-05 02:10:00,
2013-01-04 21:19:00,41.4,36.3,30.30,WNW,299,0.0,0.0,82,0.00,,,0.01,Wunderground v.1.15,2013-01-05 02:19:00,
2013-01-04 21:25:00,41.1,36.0,30.29,WNW,299,0.0,0.0,82,0.00,,,0.01,Wunderground v.1.15,2013-01-05 02:25:00,
2013-01-04 21:35:00,41.0,35.9,30.30,WNW,299,0.0,0.0,82,0.00,,,0.01,Wunderground v.1.15,2013-01-05 02:35:00,
2013-01-04 21:45:00,41.1,36.3,30.30,WNW,299,0.0,0.0,83,0.00,,,0.01,Wunderground v.1.15,2013-01-05 02:45:00,
2013-01-04 21:55:00,41.1,36.6,30.30,WNW,299,0.0,0.0,84,0.00,,,0.01,Wunderground v.1.15,2013-01-05 02:55:00,
2013-01-04 22:04:00,41.2,36.4,30.30,WNW,294,0.0,0.0,83,0.00,,,0.01,Wunderground v.1.15,2013-01-05 03:04:00,
2013-01-04 22:10:00,41.2,36.1,30.30,WNW,294,0.0,0.0,82,0.00,,,0.01,Wunderground v.1.15,2013-01-05 03:10:00,
2013-01-04 22:20:00,41.4,36.3,30.30,WNW,294,0.0,0.0,82,0.00,,,0.01,Wunderground v.1.15,2013-01-05 03:20:00,
2013-01-04 22:30:00,41.5,36.1,30.30,WNW,294,0.0,0.0,81,0.00,,,0.01,Wunderground v.1.15,2013-01-05 03:30:00,
2013-01-04 22:40:00,41.4,36.0,30.30,WNW,294,0.0,0.0,81,0.00,,,0.01,Wunderground v.1.15,2013-01-05 03:40:00,
2013-01-04 22:50:00,41.2,36.1,30.30,WNW,294,0.0,0.0,82,0.00,,,0.01,Wunderground v.1.15,2013-01-05 03:50:00,
2013-01-04 23:00:00,40.9,35.8,30.30,WNW,294,0.0,0.0,82,0.00,,,0.01,Wunderground v.1.15,2013-01-05 04:00:00,
2013-01-04 23:05:00,40.8,36.0,30.30,WNW,295,0.0,0.0,83,0.00,,,0.01,Wunderground v.1.15,2013-01-05 04:05:00,
2013-01-04 23:14:00,40.5,36.0,30.30,WNW,295,0.0,0.0,84,0.00,,,0.01,Wunderground v.1.15,2013-01-05 04:14:00,
2013-01-04 23:20:00,40.4,35.9,30.30,WNW,295,0.0,0.0,84,0.00,,,0.01,Wunderground v.1.15,2013-01-05 04:20:00,
2013-01-04 23:25:00,40.2,35.8,30.31,WNW,295,0.0,0.0,84,0.00,,,0.01,Wunderground v.1.15,2013-01-05 04:25:00,
2013-01-04 23:35:00,40.1,36.0,30.30,WNW,295,0.0,0.0,85,0.00,,,0.01,Wunderground v.1.15,2013-01-05 04:35:00,
2013-01-04 23:44:00,39.8,35.7,30.30,WNW,303,0.0,0.0,85,0.00,,,0.01,Wunderground v.1.15,2013-01-05 04:44:00,
2013-01-04 23:50:00,39.8,35.7,30.30,NW,306,0.0,0.0,85,0.00,,,0.01,Wunderground v.1.15,2013-01-05 04:50:00,